Time;durP1;ratioP1;P1;durP2;ratioP2;P2;SDS_P1;SDS_P2;PMS_P1;PMS_P2;Temp;Humidity;BMP_temperature;BMP_pressure;BME280_temperature;BME280_humidity;BME280_pressure;Samples;Min_cycle;Max_cycle;Signal;HPM_P1;HPM_P2
2023/12/13 00:00:58;;;;;;;;;;;;;;;;;;5120242;27;19920;-79
2023/12/13 00:03:24;;;;;;;;;;;;;;;;;;5093120;28;20010;-79
2023/12/13 00:05:52;;;;;;;;;;;;;;;;;;5096403;28;19927;-79
2023/12/13 00:08:23;;;;;;;;;;;;;;;;;;5111131;28;19924;-79
2023/12/13 00:10:50;;;;;;;;;;;;;;;;;;5111223;28;19926;-80
2023/12/13 00:13:20;;;;;;;;;;;;;;;;;;5109713;28;20368;-79
2023/12/13 00:15:53;;;;;;;;;;;;;;;;;;5134479;27;19943;-79
2023/12/13 00:18:22;;;;;;;;;;;;;;;;;;5104830;28;19927;-79
2023/12/13 00:20:55;;;;;;;;;;;;;;;;;;5124162;27;19920;-79
2023/12/13 00:23:22;;;;;;;;;;;;;;;;;;5126289;27;19927;-79
2023/12/13 00:25:49;;;;;;;;;;;;;;;;;;5113249;27;19923;-79
2023/12/13 00:28:32;;;;;;;;;;;;;;;;;;5098720;28;19943;-79
2023/12/13 00:31:07;;;;;;;;;;;;;;;;;;5111745;28;19920;-79
2023/12/13 00:33:34;;;;;;;;;;;;;;;;;;5113105;27;19962;-79
2023/12/13 00:36:06;;;;;;;;;;;;;;;;;;5118786;27;20337;-79
2023/12/13 00:38:40;;;;;;;;;;;;;;;;;;5110604;28;19931;-79
2023/12/13 00:41:06;;;;;;;;;;;;;;;;;;5082934;28;19969;-79
2023/12/13 00:43:32;;;;;;;;;;;;;;;;;;5113419;27;19923;-79
2023/12/13 00:46:08;;;;;;;;;;;;;;;;;;5110171;27;19964;-79
2023/12/13 00:48:39;;;;;;;;;;;;;;;;;;5100796;27;20193;-80
2023/12/13 00:51:07;;;;;;;;;;;;;;;;;;5142158;27;20045;-81
2023/12/13 00:53:33;;;;;;;;;;;;;;;;;;5076636;28;20014;-79
2023/12/13 00:56:14;;;;;;;;;;;;;;;;;;5143308;27;19954;-79
2023/12/13 00:58:49;;;;;;;;;;;;;;;;;;5138454;27;19968;-80
2023/12/13 01:01:18;;;;;;;;;;;;;;;;;;5114318;28;19919;-78
2023/12/13 01:03:44;;;;;;;;;;;;;;;;;;5085190;28;19919;-79
2023/12/13 01:06:10;;;;;;;;;;;;;;;;;;5125823;28;19919;-80
2023/12/13 01:08:56;;;;;;;;;;;;;;;;;;5099133;28;20272;-80
2023/12/13 01:11:34;;;;;;;;;;;;;;;;;;5124056;28;19919;-80
2023/12/13 01:14:00;;;;;;;;;;;;;;;;;;5130422;28;19920;-79
2023/12/13 01:16:27;;;;;;;;;;;;;;;;;;5126731;28;20372;-79
2023/12/13 01:18:57;;;;;;;;;;;;;;;;;;5109692;28;20365;-80
2023/12/13 01:21:38;;;;;;;;;;;;;;;;;;5136124;27;19919;-79
2023/12/13 01:24:04;;;;;;;;;;;;;;;;;;5097329;27;19926;-79
2023/12/13 01:26:48;;;;;;;;;;;;;;;;;;5121009;27;20387;-79
2023/12/13 01:29:24;;;;;;;;;;;;;;;;;;5148387;27;19927;-79
2023/12/13 01:31:54;;;;;;;;;;;;;;;;;;5132567;27;19927;-79
2023/12/13 01:34:20;;;;;;;;;;;;;;;;;;5113760;27;19923;-79
2023/12/13 01:36:49;;;;;;;;;;;;;;;;;;5117742;27;19926;-79
2023/12/13 01:39:21;;;;;;;;;;;;;;;;;;5148121;27;19930;-79
2023/12/13 01:41:49;;;;;;;;;;;;;;;;;;5135286;27;19919;-79
2023/12/13 01:44:21;;;;;;;;;;;;;;;;;;5092684;28;19927;-79
2023/12/13 01:46:50;;;;;;;;;;;;;;;;;;5136750;27;19919;-78
2023/12/13 01:49:16;;;;;;;;;;;;;;;;;;5130676;27;20253;-80
2023/12/13 01:51:45;;;;;;;;;;;;;;;;;;5148214;27;19920;-79
2023/12/13 01:54:11;;;;;;;;;;;;;;;;;;5110074;28;20279;-78
2023/12/13 01:56:37;;;;;;;;;;;;;;;;;;5111580;28;20011;-79
2023/12/13 01:59:04;;;;;;;;;;;;;;;;;;5107171;28;19927;-79
2023/12/13 02:01:30;;;;;;;;;;;;;;;;;;5105463;28;19927;-79
2023/12/13 02:03:56;;;;;;;;;;;;;;;;;;5118357;27;19926;-78
2023/12/13 02:06:22;;;;;;;;;;;;;;;;;;5113949;28;19946;-78
2023/12/13 02:08:48;;;;;;;;;;;;;;;;;;5090257;28;19959;-78
2023/12/13 02:11:15;;;;;;;;;;;;;;;;;;5103354;28;20356;-78
2023/12/13 02:13:41;;;;;;;;;;;;;;;;;;5096137;28;20015;-78
2023/12/13 02:16:07;;;;;;;;;;;;;;;;;;5087594;28;19959;-79
2023/12/13 02:18:33;;;;;;;;;;;;;;;;;;5129232;27;20514;-79
2023/12/13 02:20:59;;;;;;;;;;;;;;;;;;5130548;27;20034;-79
2023/12/13 02:23:25;;;;;;;;;;;;;;;;;;5123690;27;20490;-79
2023/12/13 02:25:51;;;;;;;;;;;;;;;;;;5110914;28;19920;-79
2023/12/13 02:28:17;;;;;;;;;;;;;;;;;;5137925;27;20446;-78
2023/12/13 02:30:43;;;;;;;;;;;;;;;;;;5131254;27;19927;-79
2023/12/13 02:33:09;;;;;;;;;;;;;;;;;;5127277;27;19919;-79
2023/12/13 02:35:35;;;;;;;;;;;;;;;;;;5114996;27;20414;-79
2023/12/13 02:38:02;;;;;;;;;;;;;;;;;;5127777;27;19931;-79
2023/12/13 02:40:28;;;;;;;;;;;;;;;;;;5138108;27;20375;-79
2023/12/13 02:42:55;;;;;;;;;;;;;;;;;;5128609;27;20014;-79
2023/12/13 02:45:26;;;;;;;;;;;;;;;;;;5145223;27;19915;-79
2023/12/13 02:47:53;;;;;;;;;;;;;;;;;;5119602;27;19919;-79
2023/12/13 02:50:19;;;;;;;;;;;;;;;;;;5111390;27;20018;-79
2023/12/13 02:52:45;;;;;;;;;;;;;;;;;;5132768;27;20014;-78
2023/12/13 02:55:11;;;;;;;;;;;;;;;;;;5133532;27;19927;-79
2023/12/13 02:57:37;;;;;;;;;;;;;;;;;;5131534;27;20002;-79
2023/12/13 03:00:03;;;;;;;;;;;;;;;;;;5151543;27;19924;-79
2023/12/13 03:02:29;;;;;;;;;;;;;;;;;;5092907;28;19954;-79
2023/12/13 03:04:55;;;;;;;;;;;;;;;;;;5086098;28;19943;-79
2023/12/13 03:07:21;;;;;;;;;;;;;;;;;;5080007;28;19926;-79
2023/12/13 03:09:47;;;;;;;;;;;;;;;;;;5091005;27;20019;-79
2023/12/13 03:12:13;;;;;;;;;;;;;;;;;;5094687;28;19935;-79
2023/12/13 03:14:38;;;;;;;;;;;;;;;;;;5079393;28;19972;-79
2023/12/13 03:17:04;;;;;;;;;;;;;;;;;;5085554;27;19927;-79
2023/12/13 03:19:30;;;;;;;;;;;;;;;;;;5092929;27;19915;-79
2023/12/13 03:21:56;;;;;;;;;;;;;;;;;;5125589;27;19924;-80
2023/12/13 03:24:22;;;;;;;;;;;;;;;;;;5137863;27;19920;-79
2023/12/13 03:26:48;;;;;;;;;;;;;;;;;;5116292;27;19988;-79
2023/12/13 03:29:14;;;;;;;;;;;;;;;;;;5132372;27;19970;-79
2023/12/13 03:31:41;;;;;;;;;;;;;;;;;;5115021;27;19919;-79
2023/12/13 03:34:07;;;;;;;;;;;;;;;;;;5127737;27;19976;-80
2023/12/13 03:36:33;;;;;;;;;;;;;;;;;;5112307;28;19959;-79
2023/12/13 03:38:58;;;;;;;;;;;;;;;;;;5135004;27;19927;-79
2023/12/13 03:41:25;;;;;;;;;;;;;;;;;;5150071;27;20416;-79
2023/12/13 03:43:51;;;;;;;;;;;;;;;;;;5149406;27;20279;-79
2023/12/13 03:46:17;;;;;;;;;;;;;;;;;;5127547;27;19920;-79
2023/12/13 03:48:43;;;;;;;;;;;;;;;;;;5132780;27;19930;-79
2023/12/13 03:51:09;;;;;;;;;;;;;;;;;;5133086;27;19919;-79
2023/12/13 03:53:38;;;;;;;;;;;;;;;;;;5130172;27;19919;-79
2023/12/13 03:56:04;;;;;;;;;;;;;;;;;;5110216;27;19966;-79
2023/12/13 03:58:30;;;;;;;;;;;;;;;;;;5092112;28;20007;-79
2023/12/13 04:00:56;;;;;;;;;;;;;;;;;;5112590;28;19920;-79
2023/12/13 04:03:22;;;;;;;;;;;;;;;;;;5111010;28;19927;-79
2023/12/13 04:05:48;;;;;;;;;;;;;;;;;;5130236;27;19919;-79
2023/12/13 04:08:14;;;;;;;;;;;;;;;;;;5110791;27;19920;-79
2023/12/13 04:10:39;;;;;;;;;;;;;;;;;;5145812;27;20009;-79
2023/12/13 04:13:05;;;;;;;;;;;;;;;;;;5097854;27;19919;-79
2023/12/13 04:15:31;;;;;;;;;;;;;;;;;;5107221;27;19919;-80
2023/12/13 04:17:58;;;;;;;;;;;;;;;;;;5134350;27;19926;-79
2023/12/13 04:20:23;;;;;;;;;;;;;;;;;;5110448;27;19923;-79
2023/12/13 04:22:49;;;;;;;;;;;;;;;;;;5115282;27;19925;-79
2023/12/13 04:25:15;;;;;;;;;;;;;;;;;;5113320;27;19919;-79
2023/12/13 04:27:43;;;;;;;;;;;;;;;;;;5093354;28;19927;-79
2023/12/13 04:30:11;;;;;;;;;;;;;;;;;;5097930;27;20357;-80
2023/12/13 04:32:37;;;;;;;;;;;;;;;;;;5122634;27;20268;-79
2023/12/13 04:35:03;;;;;;;;;;;;;;;;;;5129576;27;19923;-79
2023/12/13 04:37:29;;;;;;;;;;;;;;;;;;5113393;28;20039;-79
2023/12/13 04:39:55;;;;;;;;;;;;;;;;;;5110016;27;19920;-79
2023/12/13 04:42:20;;;;;;;;;;;;;;;;;;5096419;27;19962;-80
2023/12/13 04:44:47;;;;;;;;;;;;;;;;;;5094870;27;19919;-79
2023/12/13 04:47:13;;;;;;;;;;;;;;;;;;5139622;27;19924;-79
2023/12/13 04:49:39;;;;;;;;;;;;;;;;;;5120384;27;20010;-79
2023/12/13 04:52:04;;;;;;;;;;;;;;;;;;5110905;28;19964;-79
2023/12/13 04:54:30;;;;;;;;;;;;;;;;;;5135850;27;19923;-80
2023/12/13 04:56:56;;;;;;;;;;;;;;;;;;5117391;28;19923;-80
2023/12/13 04:59:23;;;;;;;;;;;;;;;;;;5148806;27;19924;-80
2023/12/13 05:01:49;;;;;;;;;;;;;;;;;;5146509;27;19927;-79
2023/12/13 05:04:15;;;;;;;;;;;;;;;;;;5114226;28;20292;-79
2023/12/13 05:06:41;;;;;;;;;;;;;;;;;;5111178;28;19929;-79
2023/12/13 05:09:08;;;;;;;;;;;;;;;;;;5138908;27;20364;-79
2023/12/13 05:11:33;;;;;;;;;;;;;;;;;;5131693;28;20533;-80
2023/12/13 05:13:59;;;;;;;;;;;;;;;;;;5113542;28;19919;-79
2023/12/13 05:16:25;;;;;;;;;;;;;;;;;;5108551;28;19919;-81
2023/12/13 05:18:51;;;;;;;;;;;;;;;;;;5128295;28;19920;-79
2023/12/13 05:21:17;;;;;;;;;;;;;;;;;;5111460;28;19920;-79
2023/12/13 05:23:43;;;;;;;;;;;;;;;;;;5115949;28;19973;-79
2023/12/13 05:26:09;;;;;;;;;;;;;;;;;;5132264;28;19923;-79
2023/12/13 05:28:35;;;;;;;;;;;;;;;;;;5130215;28;19958;-79
2023/12/13 05:31:01;;;;;;;;;;;;;;;;;;5114722;28;20397;-79
2023/12/13 05:33:27;;;;;;;;;;;;;;;;;;5129904;28;20311;-80
2023/12/13 05:35:53;;;;;;;;;;;;;;;;;;5094975;28;19933;-79
2023/12/13 05:38:19;;;;;;;;;;;;;;;;;;5145156;27;19919;-80
2023/12/13 05:40:45;;;;;;;;;;;;;;;;;;5122076;28;19926;-79
2023/12/13 05:43:11;;;;;;;;;;;;;;;;;;5127259;28;19919;-79
2023/12/13 05:45:37;;;;;;;;;;;;;;;;;;5110572;28;19926;-79
2023/12/13 05:48:03;;;;;;;;;;;;;;;;;;5127145;28;20010;-79
2023/12/13 05:50:29;;;;;;;;;;;;;;;;;;5110893;28;20418;-80
2023/12/13 05:52:54;;;;;;;;;;;;;;;;;;5134074;27;20293;-79
2023/12/13 05:55:20;;;;;;;;;;;;;;;;;;5113858;28;19923;-80
2023/12/13 05:57:46;;;;;;;;;;;;;;;;;;5095677;28;19926;-79
2023/12/13 06:00:13;;;;;;;;;;;;;;;;;;5113348;28;20367;-79
2023/12/13 06:02:39;;;;;;;;;;;;;;;;;;5128491;28;19927;-79
2023/12/13 06:05:05;;;;;;;;;;;;;;;;;;5109391;28;19919;-79
2023/12/13 06:07:32;;;;;;;;;;;;;;;;;;5115084;27;19920;-80
2023/12/13 06:09:58;;;;;;;;;;;;;;;;;;5101369;28;19920;-79
2023/12/13 06:12:24;;;;;;;;;;;;;;;;;;5130715;27;20355;-79
2023/12/13 06:14:50;;;;;;;;;;;;;;;;;;5114336;28;19959;-79
2023/12/13 06:17:15;;;;;;;;;;;;;;;;;;5125918;27;19923;-79
2023/12/13 06:19:41;;;;;;;;;;;;;;;;;;5117322;27;19919;-79
2023/12/13 06:22:09;;;;;;;;;;;;;;;;;;5114421;27;19919;-79
2023/12/13 06:24:34;;;;;;;;;;;;;;;;;;5109965;27;20006;-80
2023/12/13 06:27:00;;;;;;;;;;;;;;;;;;5108578;28;19967;-80
2023/12/13 06:29:26;;;;;;;;;;;;;;;;;;5114387;28;19927;-79
2023/12/13 06:31:52;;;;;;;;;;;;;;;;;;5130587;27;19928;-79
2023/12/13 06:34:18;;;;;;;;;;;;;;;;;;5114164;28;19919;-79
2023/12/13 06:36:45;;;;;;;;;;;;;;;;;;5119667;27;19926;-79
2023/12/13 06:39:11;;;;;;;;;;;;;;;;;;5134439;27;20284;-79
2023/12/13 06:41:37;;;;;;;;;;;;;;;;;;5112141;27;19962;-79
2023/12/13 06:44:03;;;;;;;;;;;;;;;;;;5132819;27;19924;-79
2023/12/13 06:46:29;;;;;;;;;;;;;;;;;;5121031;27;19926;-78
2023/12/13 06:48:55;;;;;;;;;;;;;;;;;;5097465;28;19922;-79
2023/12/13 06:51:21;;;;;;;;;;;;;;;;;;5116145;27;19920;-79
2023/12/13 06:53:47;;;;;;;;;;;;;;;;;;5123990;27;19926;-79
2023/12/13 06:56:13;;;;;;;;;;;;;;;;;;5096852;28;19930;-79
2023/12/13 06:58:39;;;;;;;;;;;;;;;;;;5094506;28;20384;-80
2023/12/13 07:01:05;;;;;;;;;;;;;;;;;;5096361;28;19942;-79
2023/12/13 07:03:31;;;;;;;;;;;;;;;;;;5106189;28;20303;-79
2023/12/13 07:05:57;;;;;;;;;;;;;;;;;;5150765;27;19955;-79
2023/12/13 07:08:23;;;;;;;;;;;;;;;;;;5116417;27;20330;-79
2023/12/13 07:10:49;;;;;;;;;;;;;;;;;;5126022;27;19942;-79
2023/12/13 07:13:15;;;;;;;;;;;;;;;;;;5129505;27;19927;-79
2023/12/13 07:15:41;;;;;;;;;;;;;;;;;;5133025;27;19920;-80
2023/12/13 07:18:07;;;;;;;;;;;;;;;;;;5133061;27;19920;-79
2023/12/13 07:20:34;;;;;;;;;;;;;;;;;;5133818;27;20467;-79
2023/12/13 07:23:00;;;;;;;;;;;;;;;;;;5113895;27;19927;-79
2023/12/13 07:25:26;;;;;;;;;;;;;;;;;;5125257;27;20272;-79
2023/12/13 07:27:52;;;;;;;;;;;;;;;;;;5148876;27;19919;-79
2023/12/13 07:30:18;;;;;;;;;;;;;;;;;;5128189;27;20257;-81
2023/12/13 07:32:44;;;;;;;;;;;;;;;;;;5115228;27;19926;-80
2023/12/13 07:35:11;;;;;;;;;;;;;;;;;;5101777;27;20291;-79
2023/12/13 07:37:42;;;;;;;;;;;;;;;;;;5133997;27;19928;-81
2023/12/13 07:40:11;;;;;;;;;;;;;;;;;;5133469;27;19926;-80
2023/12/13 07:42:36;;;;;;;;;;;;;;;;;;5132015;27;20013;-79
2023/12/13 07:45:02;;;;;;;;;;;;;;;;;;5132323;27;19919;-81
2023/12/13 07:47:28;;;;;;;;;;;;;;;;;;5123947;27;20579;-80
2023/12/13 07:49:54;;;;;;;;;;;;;;;;;;5112115;28;20303;-81
2023/12/13 07:52:20;;;;;;;;;;;;;;;;;;5109044;28;20014;-80
2023/12/13 07:54:48;;;;;;;;;;;;;;;;;;5069614;28;19920;-80
2023/12/13 07:57:17;;;;;;;;;;;;;;;;;;5118981;27;19923;-79
2023/12/13 07:59:46;;;;;;;;;;;;;;;;;;5118303;27;20328;-79
2023/12/13 08:02:13;;;;;;;;;;;;;;;;;;5128778;27;19920;-79
2023/12/13 08:04:39;;;;;;;;;;;;;;;;;;5128527;27;19966;-80
2023/12/13 08:07:07;;;;;;;;;;;;;;;;;;5099603;28;19920;-80
2023/12/13 08:09:33;;;;;;;;;;;;;;;;;;5086525;28;19947;-80
2023/12/13 08:11:59;;;;;;;;;;;;;;;;;;5110679;28;20357;-80
2023/12/13 08:14:30;;;;;;;;;;;;;;;;;;5074493;28;19920;-79
2023/12/13 08:16:56;;;;;;;;;;;;;;;;;;5073858;28;19924;-79
2023/12/13 08:19:22;;;;;;;;;;;;;;;;;;5091647;28;19920;-79
2023/12/13 08:21:48;;;;;;;;;;;;;;;;;;5107341;28;19920;-79
2023/12/13 08:24:14;;;;;;;;;;;;;;;;;;5090999;28;20388;-79
2023/12/13 08:26:46;;;;;;;;;;;;;;;;;;5074505;28;20020;-81
2023/12/13 08:29:11;;;;;;;;;;;;;;;;;;5101829;28;19977;-79
2023/12/13 08:31:37;;;;;;;;;;;;;;;;;;5098001;28;20413;-79
2023/12/13 08:34:03;;;;;;;;;;;;;;;;;;5073487;28;19931;-79
2023/12/13 08:36:29;;;;;;;;;;;;;;;;;;5093414;28;19920;-79
2023/12/13 08:38:56;;;;;;;;;;;;;;;;;;5093874;28;19926;-81
2023/12/13 08:41:33;;;;;;;;;;;;;;;;;;5112648;28;20353;-79
2023/12/13 08:43:59;;;;;;;;;;;;;;;;;;5110761;28;19967;-80
2023/12/13 08:46:25;;;;;;;;;;;;;;;;;;5071922;28;19993;-79
2023/12/13 08:48:51;;;;;;;;;;;;;;;;;;5097088;28;19926;-79
2023/12/13 08:51:17;;;;;;;;;;;;;;;;;;5118896;27;19926;-79
2023/12/13 08:53:44;;;;;;;;;;;;;;;;;;5092978;28;19923;-79
2023/12/13 08:56:11;;;;;;;;;;;;;;;;;;5093334;28;19920;-79
2023/12/13 08:58:44;;;;;;;;;;;;;;;;;;5092655;28;19919;-79
2023/12/13 09:01:10;;;;;;;;;;;;;;;;;;5110129;28;20250;-79
2023/12/13 09:03:36;;;;;;;;;;;;;;;;;;5091258;28;20391;-79
2023/12/13 09:06:20;;;;;;;;;;;;;;;;;;5134308;27;19953;-79
2023/12/13 09:08:53;;;;;;;;;;;;;;;;;;5105406;28;20427;-79
2023/12/13 09:11:20;;;;;;;;;;;;;;;;;;5125256;28;20494;-79
2023/12/13 09:13:59;;;;;;;;;;;;;;;;;;5105953;28;20410;-80
2023/12/13 09:16:25;;;;;;;;;;;;;;;;;;5103977;28;19920;-80
2023/12/13 09:18:51;;;;;;;;;;;;;;;;;;5103865;28;20295;-81
2023/12/13 09:21:17;;;;;;;;;;;;;;;;;;5127728;28;19919;-79
2023/12/13 09:23:44;;;;;;;;;;;;;;;;;;5092862;28;20420;-77
2023/12/13 09:26:13;;;;;;;;;;;;;;;;;;5100554;28;19926;-78
2023/12/13 09:28:45;;;;;;;;;;;;;;;;;;5091437;28;20376;-78
2023/12/13 09:31:12;;;;;;;;;;;;;;;;;;5110768;28;20216;-79
2023/12/13 09:36:23;;;;;;;;;;;;;;;;;;5119858;28;19959;-79
2023/12/13 09:38:59;;;;;;;;;;;;;;;;;;5108220;28;19924;-78
2023/12/13 09:41:44;;;;;;;;;;;;;;;;;;5125332;27;20012;-79
2023/12/13 09:44:25;;;;;;;;;;;;;;;;;;5115999;28;19920;-79
2023/12/13 09:47:00;;;;;;;;;;;;;;;;;;5117852;27;20016;-80
2023/12/13 09:49:47;;;;;;;;;;;;;;;;;;5133734;27;19926;-79
2023/12/13 09:52:19;;;;;;;;;;;;;;;;;;5082208;27;19920;-79
2023/12/13 09:55:12;;;;;;;;;;;;;;;;;;5122733;27;19919;-79
2023/12/13 09:57:58;;;;;;;;;;;;;;;;;;5130641;27;19919;-79
2023/12/13 10:00:44;;;;;;;;;;;;;;;;;;5119596;27;19919;-79
2023/12/13 10:03:13;;;;;;;;;;;;;;;;;;5150960;27;19923;-79
2023/12/13 10:05:58;;;;;;;;;;;;;;;;;;5135339;27;19915;-79
2023/12/13 10:08:34;;;;;;;;;;;;;;;;;;5099220;27;20401;-79
2023/12/13 10:11:20;;;;;;;;;;;;;;;;;;5148497;27;19969;-78
2023/12/13 10:14:01;;;;;;;;;;;;;;;;;;5133052;27;20056;-79
2023/12/13 10:16:31;;;;;;;;;;;;;;;;;;5092087;27;19926;-79
2023/12/13 10:19:36;;;;;;;;;;;;;;;;;;5122187;27;19929;-80
2023/12/13 10:22:11;;;;;;;;;;;;;;;;;;5134021;27;19942;-80
2023/12/13 10:24:37;;;;;;;;;;;;;;;;;;5100100;27;20361;-76
2023/12/13 10:27:04;;;;;;;;;;;;;;;;;;5115668;27;19987;-80
2023/12/13 10:32:40;;;;;;;;;;;;;;;;;;5134563;27;20002;-80
2023/12/13 10:35:23;;;;;;;;;;;;;;;;;;5094923;28;19920;-80
2023/12/13 10:38:23;;;;;;;;;;;;;;;;;;5130570;27;19994;-77
2023/12/13 10:40:49;;;;;;;;;;;;;;;;;;5117140;27;19966;-79
2023/12/13 10:43:48;;;;;;;;;;;;;;;;;;5120382;27;19922;-85
2023/12/13 10:46:14;;;;;;;;;;;;;;;;;;5113659;28;20331;-91
2023/12/13 10:48:40;;;;;;;;;;;;;;;;;;5129958;27;19946;-80
2023/12/13 10:54:25;;;;;;;;;;;;;;;;;;5116535;27;19954;-80
2023/12/13 10:56:52;;;;;;;;;;;;;;;;;;5147630;27;19920;-80
2023/12/13 10:59:18;;;;;;;;;;;;;;;;;;5097251;27;20037;-78
2023/12/13 11:01:45;;;;;;;;;;;;;;;;;;5131353;27;20010;-79
2023/12/13 11:04:26;;;;;;;;;;;;;;;;;;5131648;27;20288;-79
2023/12/13 11:06:54;;;;;;;;;;;;;;;;;;5096208;28;20303;-79
2023/12/13 11:09:29;;;;;;;;;;;;;;;;;;5112320;28;19920;-79
2023/12/13 11:11:57;;;;;;;;;;;;;;;;;;5112877;28;19920;-80
2023/12/13 11:14:29;;;;;;;;;;;;;;;;;;5133978;27;19985;-80
2023/12/13 11:17:25;;;;;;;;;;;;;;;;;;5133299;27;19914;-79
2023/12/13 11:20:09;;;;;;;;;;;;;;;;;;5112343;27;19927;-80
2023/12/13 11:22:57;;;;;;;;;;;;;;;;;;5130915;27;19923;-81
2023/12/13 11:25:23;;;;;;;;;;;;;;;;;;5130883;27;20025;-82
2023/12/13 11:27:55;;;;;;;;;;;;;;;;;;5115236;27;19923;-80
2023/12/13 11:30:31;;;;;;;;;;;;;;;;;;5115764;27;20057;-79
2023/12/13 11:33:12;;;;;;;;;;;;;;;;;;5146553;27;19927;-80
2023/12/13 11:35:46;;;;;;;;;;;;;;;;;;5134220;27;19926;-79
2023/12/13 11:38:35;;;;;;;;;;;;;;;;;;5134029;27;19998;-78
2023/12/13 11:41:01;;;;;;;;;;;;;;;;;;5111179;27;20311;-78
2023/12/13 11:43:27;;;;;;;;;;;;;;;;;;5114075;27;19966;-77
2023/12/13 11:46:01;;;;;;;;;;;;;;;;;;5113757;28;20464;-79
2023/12/13 11:48:27;;;;;;;;;;;;;;;;;;5112106;27;20293;-78
2023/12/13 11:50:59;;;;;;;;;;;;;;;;;;5075269;28;20454;-79
2023/12/13 11:53:32;;;;;;;;;;;;;;;;;;5076425;28;19927;-78
2023/12/13 11:55:58;;;;;;;;;;;;;;;;;;5108055;28;19942;-84
2023/12/13 11:58:24;;;;;;;;;;;;;;;;;;5127801;27;20682;-78
2023/12/13 12:00:51;;;;;;;;;;;;;;;;;;5092248;28;19973;-78
2023/12/13 12:03:17;;;;;;;;;;;;;;;;;;5124953;27;19920;-78
2023/12/13 12:05:43;;;;;;;;;;;;;;;;;;5068547;28;19927;-79
2023/12/13 12:08:11;;;;;;;;;;;;;;;;;;5107845;28;20018;-79
2023/12/13 12:10:37;;;;;;;;;;;;;;;;;;5071081;28;20280;-78
2023/12/13 12:13:03;;;;;;;;;;;;;;;;;;5103978;28;19924;-78
2023/12/13 12:15:30;;;;;;;;;;;;;;;;;;5082557;28;19923;-77
2023/12/13 12:17:56;;;;;;;;;;;;;;;;;;5077995;28;20046;-78
2023/12/13 12:20:26;;;;;;;;;;;;;;;;;;5099053;28;20010;-76
2023/12/13 12:22:52;;;;;;;;;;;;;;;;;;5078283;28;19993;-78
2023/12/13 12:25:20;;;;;;;;;;;;;;;;;;5108718;28;19966;-78
2023/12/13 12:27:46;;;;;;;;;;;;;;;;;;5076974;28;19919;-78
2023/12/13 12:30:12;;;;;;;;;;;;;;;;;;5124471;27;20373;-79
2023/12/13 12:32:39;;;;;;;;;;;;;;;;;;5068036;28;19919;-78
2023/12/13 12:35:05;;;;;;;;;;;;;;;;;;5111615;28;20308;-79
2023/12/13 12:37:31;;;;;;;;;;;;;;;;;;5094432;28;19919;-81
2023/12/13 12:39:57;;;;;;;;;;;;;;;;;;5077278;28;19920;-82
2023/12/13 12:45:23;;;;;;;;;;;;;;;;;;5101048;28;20388;-80
2023/12/13 12:47:49;;;;;;;;;;;;;;;;;;5130624;27;19969;-80
2023/12/13 12:50:15;;;;;;;;;;;;;;;;;;5110830;28;20002;-80
2023/12/13 12:52:42;;;;;;;;;;;;;;;;;;5139305;27;19920;-83
2023/12/13 12:55:07;;;;;;;;;;;;;;;;;;5110887;28;19919;-79
2023/12/13 12:57:33;;;;;;;;;;;;;;;;;;5089466;28;20339;-76
2023/12/13 12:59:59;;;;;;;;;;;;;;;;;;5100286;28;19974;-77
2023/12/13 13:02:26;;;;;;;;;;;;;;;;;;5092611;28;19920;-77
2023/12/13 13:04:52;;;;;;;;;;;;;;;;;;5108466;28;19959;-76
2023/12/13 13:07:18;;;;;;;;;;;;;;;;;;5101153;28;19927;-77
2023/12/13 13:09:44;;;;;;;;;;;;;;;;;;5093926;28;19920;-76
2023/12/13 13:12:10;;;;;;;;;;;;;;;;;;5090160;28;19960;-74
2023/12/13 13:14:36;;;;;;;;;;;;;;;;;;5109015;28;19920;-74
2023/12/13 13:17:02;;;;;;;;;;;;;;;;;;5112747;28;19919;-74
2023/12/13 13:19:28;;;;;;;;;;;;;;;;;;5114335;28;19928;-75
2023/12/13 13:21:55;;;;;;;;;;;;;;;;;;5114876;28;19967;-75
2023/12/13 13:24:22;;;;;;;;;;;;;;;;;;5140897;27;19919;-77
2023/12/13 13:26:48;;;;;;;;;;;;;;;;;;5149735;27;19920;-77
2023/12/13 13:29:13;;;;;;;;;;;;;;;;;;5131780;27;19946;-78
2023/12/13 13:31:39;;;;;;;;;;;;;;;;;;5114661;28;19969;-76
2023/12/13 13:34:05;;;;;;;;;;;;;;;;;;5142773;27;19920;-76
2023/12/13 13:36:31;;;;;;;;;;;;;;;;;;5128017;27;19927;-76
2023/12/13 13:38:57;;;;;;;;;;;;;;;;;;5111501;28;20354;-76
2023/12/13 13:41:24;;;;;;;;;;;;;;;;;;5128693;27;19973;-76
2023/12/13 13:43:50;;;;;;;;;;;;;;;;;;5127528;27;20014;-76
2023/12/13 13:46:16;;;;;;;;;;;;;;;;;;5111804;28;19978;-77
2023/12/13 13:48:42;;;;;;;;;;;;;;;;;;5144071;27;19965;-76
2023/12/13 13:51:08;;;;;;;;;;;;;;;;;;5112691;28;19926;-76
2023/12/13 13:53:34;;;;;;;;;;;;;;;;;;5114015;28;20010;-77
2023/12/13 13:56:02;;;;;;;;;;;;;;;;;;5118852;27;19944;-76
2023/12/13 13:58:28;;;;;;;;;;;;;;;;;;5151013;27;20010;-76
2023/12/13 14:00:54;;;;;;;;;;;;;;;;;;5130796;27;19992;-77
2023/12/13 14:03:20;;;;;;;;;;;;;;;;;;5106838;28;19924;-78
2023/12/13 14:05:46;;;;;;;;;;;;;;;;;;5146124;27;19972;-76
2023/12/13 14:08:13;;;;;;;;;;;;;;;;;;5134843;27;19926;-76
2023/12/13 14:10:40;;;;;;;;;;;;;;;;;;5134625;27;20010;-76
2023/12/13 14:13:06;;;;;;;;;;;;;;;;;;5134039;27;20352;-76
2023/12/13 14:15:32;;;;;;;;;;;;;;;;;;5131441;27;19920;-76
2023/12/13 14:17:58;;;;;;;;;;;;;;;;;;5131191;27;20265;-76
2023/12/13 14:20:24;;;;;;;;;;;;;;;;;;5116485;27;19985;-76
2023/12/13 14:22:50;;;;;;;;;;;;;;;;;;5134605;27;19945;-76
2023/12/13 14:25:16;;;;;;;;;;;;;;;;;;5135037;27;20022;-76
2023/12/13 14:27:42;;;;;;;;;;;;;;;;;;5114380;27;20357;-76
2023/12/13 14:30:09;;;;;;;;;;;;;;;;;;5105319;28;19923;-77
2023/12/13 14:32:35;;;;;;;;;;;;;;;;;;5110660;27;19926;-76
2023/12/13 14:35:01;;;;;;;;;;;;;;;;;;5100092;27;19919;-76
2023/12/13 14:37:27;;;;;;;;;;;;;;;;;;5099466;27;19964;-77
2023/12/13 14:39:53;;;;;;;;;;;;;;;;;;5108509;27;20824;-75
2023/12/13 14:42:19;;;;;;;;;;;;;;;;;;5111239;27;19930;-76
2023/12/13 14:44:45;;;;;;;;;;;;;;;;;;5116218;27;19923;-76
2023/12/13 14:47:11;;;;;;;;;;;;;;;;;;5094009;27;19919;-76
2023/12/13 14:49:37;;;;;;;;;;;;;;;;;;5106335;27;20299;-76
2023/12/13 14:52:03;;;;;;;;;;;;;;;;;;5116605;27;19919;-76
2023/12/13 14:54:29;;;;;;;;;;;;;;;;;;5144581;27;19927;-76
2023/12/13 14:56:55;;;;;;;;;;;;;;;;;;5125370;27;19919;-75
2023/12/13 14:59:21;;;;;;;;;;;;;;;;;;5116013;27;19919;-75
2023/12/13 15:01:48;;;;;;;;;;;;;;;;;;5115036;27;19923;-75
2023/12/13 15:04:15;;;;;;;;;;;;;;;;;;5126476;27;20016;-76
2023/12/13 15:06:41;;;;;;;;;;;;;;;;;;5125260;27;20372;-77
2023/12/13 15:09:07;;;;;;;;;;;;;;;;;;5150511;27;19974;-76
2023/12/13 15:11:33;;;;;;;;;;;;;;;;;;5115803;27;19946;-75
2023/12/13 15:13:59;;;;;;;;;;;;;;;;;;5111860;28;19923;-75
2023/12/13 15:16:25;;;;;;;;;;;;;;;;;;5129475;27;19920;-77
2023/12/13 15:18:51;;;;;;;;;;;;;;;;;;5111719;27;20018;-74
2023/12/13 15:21:17;;;;;;;;;;;;;;;;;;5116605;27;19920;-74
2023/12/13 15:23:43;;;;;;;;;;;;;;;;;;5114436;27;19957;-78
2023/12/13 15:26:09;;;;;;;;;;;;;;;;;;5144448;27;19919;-76
2023/12/13 15:28:36;;;;;;;;;;;;;;;;;;5109834;27;20279;-76
2023/12/13 15:31:02;;;;;;;;;;;;;;;;;;5122613;27;19926;-76
2023/12/13 15:33:29;;;;;;;;;;;;;;;;;;5131877;27;19919;-78
2023/12/13 15:35:55;;;;;;;;;;;;;;;;;;5114579;27;19934;-77
2023/12/13 15:38:21;;;;;;;;;;;;;;;;;;5113012;27;20028;-75
2023/12/13 15:40:47;;;;;;;;;;;;;;;;;;5121739;27;20364;-78
2023/12/13 15:43:20;;;;;;;;;;;;;;;;;;5112475;27;19969;-76
2023/12/13 15:45:46;;;;;;;;;;;;;;;;;;5108515;27;19992;-76
2023/12/13 15:48:12;;;;;;;;;;;;;;;;;;5099706;28;19919;-78
2023/12/13 15:50:39;;;;;;;;;;;;;;;;;;5117294;27;19931;-76
2023/12/13 15:53:07;;;;;;;;;;;;;;;;;;5141493;27;19977;-77
2023/12/13 15:55:33;;;;;;;;;;;;;;;;;;5126865;27;20426;-77
2023/12/13 15:57:59;;;;;;;;;;;;;;;;;;5090045;28;19924;-76
2023/12/13 16:00:27;;;;;;;;;;;;;;;;;;5092664;28;20018;-77
2023/12/13 16:02:53;;;;;;;;;;;;;;;;;;5107358;28;19923;-76
2023/12/13 16:05:19;;;;;;;;;;;;;;;;;;5127074;27;20356;-76
2023/12/13 16:07:45;;;;;;;;;;;;;;;;;;5102113;28;20432;-79
2023/12/13 16:10:12;;;;;;;;;;;;;;;;;;5136245;27;19923;-78
2023/12/13 16:12:38;;;;;;;;;;;;;;;;;;5109301;28;19966;-78
2023/12/13 16:15:03;;;;;;;;;;;;;;;;;;5092840;28;19971;-77
2023/12/13 16:17:29;;;;;;;;;;;;;;;;;;5085207;28;19926;-79
2023/12/13 16:19:56;;;;;;;;;;;;;;;;;;5121311;27;19974;-78
2023/12/13 16:22:22;;;;;;;;;;;;;;;;;;5079726;28;20003;-77
2023/12/13 16:24:48;;;;;;;;;;;;;;;;;;5086000;28;19960;-77
2023/12/13 16:27:13;;;;;;;;;;;;;;;;;;5089955;28;20034;-76
2023/12/13 16:29:40;;;;;;;;;;;;;;;;;;5110575;28;20353;-78
2023/12/13 16:32:06;;;;;;;;;;;;;;;;;;5109408;28;19926;-77
2023/12/13 16:34:32;;;;;;;;;;;;;;;;;;5082320;28;19920;-76
2023/12/13 16:36:58;;;;;;;;;;;;;;;;;;5105663;28;19927;-77
2023/12/13 16:39:45;;;;;;;;;;;;;;;;;;5107557;28;19918;-77
2023/12/13 16:42:21;;;;;;;;;;;;;;;;;;5111392;28;19970;-77
2023/12/13 16:44:48;;;;;;;;;;;;;;;;;;5080876;28;19924;-77
2023/12/13 16:47:20;;;;;;;;;;;;;;;;;;5096366;28;20273;-77
2023/12/13 16:49:55;;;;;;;;;;;;;;;;;;5101081;28;20158;-77
2023/12/13 16:52:24;;;;;;;;;;;;;;;;;;5110351;28;19927;-77
2023/12/13 16:54:51;;;;;;;;;;;;;;;;;;5110496;28;19923;-77
2023/12/13 16:57:26;;;;;;;;;;;;;;;;;;5120337;28;20011;-76
2023/12/13 16:59:52;;;;;;;;;;;;;;;;;;5104662;28;19919;-77
2023/12/13 17:02:21;;;;;;;;;;;;;;;;;;5123146;28;19927;-77
2023/12/13 17:04:48;;;;;;;;;;;;;;;;;;5109854;28;19928;-76